Woodgate, Indiana
Current Conditions -  °F | °C
As of 8:53 AM on Sunday 23 Nov 2014 (Local Time) from KHUF Reporting Station
Broken Clouds Broken Clouds  
Wind Chill: 52°   Ceiling: 3800
Heat Index: 52°   Visibility: 10mi
Dew Point: 43°   Wind: 12mph
Humidity: 71%   Direction: 150°SSE
Pressure: 29.84"   Gusts: NA
Location:  39.3587°N, 87.4056°W
Report Text: KHUF 231353Z 15010KT 10SM FEW027 BKN038 11/06 A2984 RMK AO2 SLP104 T01110061
Loading
Personal Weather Stations






























Interactive Weather Map New forecast layout! Learn more

10-Day Weather Forecast

Advertisements
Track Severe Weather on mobile